Terminal Aerodrome Forecast
Issued by NWS

Home | Current Version | Previous Version | Text Only | Print | Product List | Glossary On
Versions: 1 2 3 4 5 6 7 8 9 10 11 12 13 14 15 16
916
FTUS41 KAKQ 280540
TAFPHF
TAF
KPHF 280540Z 2806/2906 VRB03KT P6SM BKN100
     FM280900 18003KT 4SM BR SCT250
     FM281200 21006KT P6SM SCT250
     FM281900 17006KT P6SM BKN060=

USA.gov is the U.S. government's official web portal to all federal, state and local government web resources and services.